Flagstaff Pulliam Airport Flagstaff US
ICAO: KFLG
IATA: FLG
Category: Medium
Scheduled Services: Yes

Elevation: 7014 ft
TransAlt. 18000 ft.

Airport Communications:
ATIS:125.8
ALBUQUERQUE CNTR:124.5
CTAF:134.55
GND:121.9
PRESCOTT RDO:122.3
TWR:134.55
UNICOM:122.95

KFLG Zoom In..

If you have problems with the map follow the link
https://www.worldairports.se/pages/airport.php?
ICAO=KFLG

Runways:

(A) RW 03 length 8800 ft width 150 ft
---- / hdg 27

(B) RW 21 length 8800 ft width 150 ft
ILS 110.50 / hdg 207

Location; KFLG
Day. 17 / Time. 23.57 Zulu
* Altimeter: 30.18
* Temperature: 03° c. 37.4°f.
* Wind from: VRB° Speed 04 kn.
Dewpoint: -08° c.
Visibility: 10 Statute Miles.
Clouds: Clear (automated report).

KFLG 172357Z VRB04KT 10SM CLR 03/M08 A3018 RMK AO2 SLP201 T00281083 10039 20011 51009


Wind From VRB°
Speed 04 kn.

 
 
jpsmedia worldairports.se 2020   terms of use